createdAt,value
2023-02-11T00:01:14.175Z,103151.08
2023-02-11T00:03:42.120Z,103150.02
2023-02-11T00:06:11.153Z,103146.64
2023-02-11T00:08:39.696Z,103143.77
2023-02-11T00:11:12.944Z,103143.27
2023-02-11T00:13:41.525Z,103142.35
2023-02-11T00:16:10.753Z,103143.41
2023-02-11T00:18:38.895Z,103140.70
2023-02-11T00:21:12.974Z,103138.90
2023-02-11T00:23:40.961Z,103139.98
2023-02-11T00:26:19.800Z,103139.70
2023-02-11T00:28:48.897Z,103133.59
2023-02-11T00:31:19.071Z,103137.73
2023-02-11T00:33:47.991Z,103141.32
2023-02-11T00:36:17.642Z,103138.58
2023-02-11T00:38:48.407Z,103133.91
2023-02-11T00:41:18.469Z,103133.17
2023-02-11T00:43:47.129Z,103126.33
2023-02-11T00:46:16.422Z,103120.17
2023-02-11T00:48:44.451Z,103122.88
2023-02-11T00:51:12.805Z,103122.23
2023-02-11T00:53:41.318Z,103116.09
2023-02-11T00:56:09.793Z,103115.05
2023-02-11T00:58:37.695Z,103114.00
2023-02-11T01:01:05.793Z,103116.71
2023-02-11T01:03:36.306Z,103112.27
2023-02-11T01:06:05.010Z,103109.58
2023-02-11T01:08:33.905Z,103111.81
2023-02-11T01:11:03.130Z,103109.80
2023-02-11T01:13:31.734Z,103109.40
2023-02-11T01:16:00.284Z,103108.52
2023-02-11T01:18:28.301Z,103105.72
2023-02-11T01:20:56.814Z,103103.43
2023-02-11T01:23:25.235Z,103107.33
2023-02-11T01:25:53.519Z,103107.48
2023-02-11T01:28:26.218Z,103103.94
2023-02-11T01:30:55.380Z,103100.34
2023-02-11T01:33:24.048Z,103097.41
2023-02-11T01:35:52.321Z,103091.64
2023-02-11T01:38:22.656Z,103091.70
2023-02-11T01:40:53.071Z,103088.39
2023-02-11T01:43:21.918Z,103085.45
2023-02-11T01:46:03.379Z,103083.95
2023-02-11T01:48:51.848Z,103082.52
2023-02-11T01:51:29.193Z,103076.09
2023-02-11T01:53:57.812Z,103077.42
2023-02-11T01:56:27.674Z,103075.95
2023-02-11T01:58:59.472Z,103077.52
2023-02-11T02:01:29.360Z,103079.61
2023-02-11T02:04:01.248Z,103074.89
2023-02-11T02:06:33.565Z,103072.65
2023-02-11T02:09:06.423Z,103071.67
2023-02-11T02:11:34.646Z,103069.58
2023-02-11T02:14:03.095Z,103065.38
2023-02-11T02:16:35.937Z,103057.14
2023-02-11T02:19:19.331Z,103055.80
2023-02-11T02:22:07.599Z,103051.48
2023-02-11T02:24:41.391Z,103048.51
2023-02-11T02:27:09.496Z,103040.84
2023-02-11T02:29:55.941Z,103042.75
2023-02-11T02:32:33.455Z,103035.79
2023-02-11T02:35:20.149Z,103031.27
2023-02-11T02:37:52.465Z,103029.41
2023-02-11T02:40:23.896Z,103022.04
2023-02-11T02:42:53.437Z,103017.22
2023-02-11T02:45:22.353Z,103014.41
2023-02-11T02:47:50.787Z,103014.77
2023-02-11T02:50:22.600Z,103021.78
2023-02-11T02:53:08.633Z,103025.20
2023-02-11T02:55:39.894Z,103017.48
2023-02-11T02:58:32.212Z,103013.59
2023-02-11T03:01:20.554Z,103011.63
2023-02-11T03:03:48.642Z,103005.52
2023-02-11T03:06:26.494Z,103000.66
2023-02-11T03:08:57.592Z,103002.16
2023-02-11T03:11:26.184Z,102996.58
2023-02-11T03:13:56.438Z,102992.34
2023-02-11T03:16:28.490Z,102990.80
2023-02-11T03:19:03.589Z,102987.16
2023-02-11T03:21:33.294Z,102982.20
2023-02-11T03:24:06.496Z,102978.52
2023-02-11T03:26:40.608Z,102975.30
2023-02-11T03:29:17.759Z,102969.84
2023-02-11T03:31:54.836Z,102970.38
2023-02-11T03:34:28.417Z,102967.77
2023-02-11T03:37:00.754Z,102962.17
2023-02-11T03:39:46.005Z,102961.45
2023-02-11T03:42:14.811Z,102957.58
2023-02-11T03:45:05.439Z,102953.87
2023-02-11T03:47:35.546Z,102951.55
2023-02-11T03:50:06.568Z,102949.94
2023-02-11T03:52:37.162Z,102946.57
2023-02-11T03:55:09.121Z,102944.54
2023-02-11T03:57:38.013Z,102944.58
2023-02-11T04:00:07.130Z,102953.00
2023-02-11T04:02:36.223Z,102948.03
2023-02-11T04:05:06.411Z,102943.63
2023-02-11T04:07:35.318Z,102940.65
2023-02-11T04:10:03.696Z,102943.06
2023-02-11T04:12:33.499Z,102945.98
2023-02-11T04:15:01.386Z,102940.26
2023-02-11T04:17:30.255Z,102942.29
2023-02-11T04:19:58.351Z,102940.92
2023-02-11T04:22:26.862Z,102933.88
2023-02-11T04:24:54.870Z,102934.01
2023-02-11T04:27:23.031Z,102930.61
2023-02-11T04:29:51.469Z,102934.49
2023-02-11T04:32:20.484Z,102938.07
2023-02-11T04:34:49.835Z,102940.38
2023-02-11T04:37:17.779Z,102936.52
2023-02-11T04:39:45.889Z,102936.70
2023-02-11T04:42:14.237Z,102935.71
2023-02-11T04:44:43.513Z,102931.87
2023-02-11T04:47:12.984Z,102929.50
2023-02-11T04:49:41.181Z,102921.79
2023-02-11T04:52:09.732Z,102919.25
2023-02-11T04:54:37.853Z,102922.96
2023-02-11T04:57:06.894Z,102909.60
2023-02-11T04:59:34.894Z,102913.52
2023-02-11T05:02:02.897Z,102915.34
2023-02-11T05:04:30.908Z,102917.10
2023-02-11T05:06:59.494Z,102917.73
2023-02-11T05:09:27.461Z,102920.20
2023-02-11T05:11:55.534Z,102921.33
2023-02-11T05:14:23.462Z,102919.10
2023-02-11T05:16:52.945Z,102915.27
2023-02-11T05:19:21.451Z,102913.41
2023-02-11T05:22:01.636Z,102914.87
2023-02-11T05:24:31.661Z,102913.60
2023-02-11T05:27:00.167Z,102911.41
2023-02-11T05:29:29.167Z,102907.67
2023-02-11T05:31:58.940Z,102908.28
2023-02-11T05:34:27.075Z,102903.05
2023-02-11T05:36:55.170Z,102905.23
2023-02-11T05:39:23.283Z,102902.21
2023-02-11T05:41:51.272Z,102902.24
2023-02-11T05:44:19.430Z,102900.81
2023-02-11T05:46:47.942Z,102895.38
2023-02-11T05:49:17.181Z,102896.56
2023-02-11T05:51:45.232Z,102899.06
2023-02-11T05:54:13.572Z,102897.13
2023-02-11T05:56:43.788Z,102892.57
2023-02-11T05:59:14.111Z,102887.75
2023-02-11T06:01:43.388Z,102886.86
2023-02-11T06:04:11.477Z,102889.51
2023-02-11T06:06:39.472Z,102895.35
2023-02-11T06:09:07.788Z,102900.30
2023-02-11T06:11:35.866Z,102903.27
2023-02-11T06:14:03.898Z,102902.86
2023-02-11T06:16:31.928Z,102904.80
2023-02-11T06:19:01.589Z,102903.73
2023-02-11T06:21:42.762Z,102910.99
2023-02-11T06:24:12.031Z,102908.02
2023-02-11T06:26:40.195Z,102910.98
2023-02-11T06:29:08.157Z,102912.55
2023-02-11T06:31:37.309Z,102911.95
2023-02-11T06:34:06.151Z,102910.53
2023-02-11T06:36:34.884Z,102910.77
2023-02-11T06:39:03.076Z,102915.96
2023-02-11T06:41:31.886Z,102912.48
2023-02-11T06:44:00.009Z,102911.84
2023-02-11T06:46:28.206Z,102910.04
2023-02-11T06:48:56.307Z,102913.99
2023-02-11T06:51:24.267Z,102915.16
2023-02-11T06:53:52.407Z,102913.98
2023-02-11T06:56:22.410Z,102916.38
2023-02-11T06:58:55.384Z,102914.48
2023-02-11T07:01:24.233Z,102916.30
2023-02-11T07:03:53.368Z,102921.40
2023-02-11T07:06:23.096Z,102925.38
2023-02-11T07:08:51.310Z,102921.32
2023-02-11T07:11:20.650Z,102922.81
2023-02-11T07:13:48.687Z,102925.73
2023-02-11T07:16:18.247Z,102927.42
2023-02-11T07:18:47.131Z,102929.42
2023-02-11T07:21:16.189Z,102926.45
2023-02-11T07:23:45.661Z,102922.68
2023-02-11T07:26:15.113Z,102928.51
2023-02-11T07:28:43.837Z,102928.86
2023-02-11T07:31:13.800Z,102931.87
2023-02-11T07:33:42.289Z,102934.60
2023-02-11T07:36:10.813Z,102934.89
2023-02-11T07:38:39.757Z,102936.63
2023-02-11T07:41:09.194Z,102942.89
2023-02-11T07:43:37.889Z,102940.25
2023-02-11T07:46:08.518Z,102941.95
2023-02-11T07:48:36.509Z,102948.07
2023-02-11T07:51:35.859Z,102948.17
2023-02-11T07:54:04.360Z,102954.99
2023-02-11T07:56:32.684Z,102958.15
2023-02-11T07:59:02.469Z,102957.29
2023-02-11T08:01:30.622Z,102960.61
2023-02-11T08:03:59.388Z,102960.09
2023-02-11T08:06:29.575Z,102963.21
2023-02-11T08:08:57.700Z,102964.27
2023-02-11T08:11:27.326Z,102968.15
2023-02-11T08:13:56.024Z,102966.52
2023-02-11T08:16:31.717Z,102968.35
2023-02-11T08:19:01.507Z,102973.77
2023-02-11T08:21:30.357Z,102978.44
2023-02-11T08:23:59.193Z,102971.23
2023-02-11T08:26:29.017Z,102976.27
2023-02-11T08:28:57.955Z,102980.58
2023-02-11T08:31:28.003Z,102982.96
2023-02-11T08:33:56.684Z,102980.55
2023-02-11T08:36:29.844Z,102980.25
2023-02-11T08:39:16.137Z,102984.03
2023-02-11T08:41:48.025Z,102981.42
2023-02-11T08:44:17.178Z,102980.70
2023-02-11T08:46:46.674Z,102980.17
2023-02-11T08:49:14.971Z,102978.48
2023-02-11T08:51:43.522Z,102982.25
2023-02-11T08:54:12.297Z,102985.02
2023-02-11T08:56:40.858Z,102989.16
2023-02-11T08:59:09.422Z,102982.76
2023-02-11T09:01:38.338Z,102984.55
2023-02-11T09:04:06.575Z,102985.54
2023-02-11T09:06:34.583Z,102985.42
2023-02-11T09:09:02.772Z,102983.55
2023-02-11T09:11:50.574Z,102982.04
2023-02-11T09:14:20.753Z,102982.53
2023-02-11T09:16:48.962Z,102987.16
2023-02-11T09:19:17.856Z,102992.96
2023-02-11T09:21:47.237Z,102993.95
2023-02-11T09:24:15.827Z,102998.35
2023-02-11T09:26:45.034Z,103002.15
2023-02-11T09:29:13.433Z,103002.77
2023-02-11T09:31:41.496Z,103006.71
2023-02-11T09:34:10.948Z,103014.98
2023-02-11T09:36:39.826Z,103010.79
2023-02-11T09:39:11.883Z,103018.29
2023-02-11T09:41:48.877Z,103023.40
2023-02-11T09:44:20.608Z,103009.92
2023-02-11T09:46:54.269Z,103017.95
2023-02-11T09:49:25.379Z,103014.30
2023-02-11T09:51:58.091Z,103020.48
2023-02-11T09:54:29.552Z,103023.13
2023-02-11T09:56:57.493Z,103018.39
2023-02-11T09:59:25.779Z,103022.51
2023-02-11T10:01:57.994Z,103021.02
2023-02-11T10:04:35.374Z,103016.05
2023-02-11T10:07:03.464Z,103014.89
2023-02-11T10:09:34.030Z,103019.23
2023-02-11T10:12:17.338Z,103014.38
2023-02-11T10:14:51.437Z,103011.94
2023-02-11T10:17:30.199Z,103013.29
2023-02-11T10:20:06.336Z,103011.02
2023-02-11T10:22:45.694Z,103003.23
2023-02-11T10:25:25.901Z,103007.45
2023-02-11T10:27:56.502Z,103004.02
2023-02-11T10:30:27.841Z,103001.88
2023-02-11T10:33:01.383Z,103010.23
2023-02-11T10:35:29.567Z,103004.13
2023-02-11T10:37:57.522Z,103007.38
2023-02-11T10:40:27.731Z,103008.98
2023-02-11T10:42:58.209Z,103000.81
2023-02-11T10:45:42.309Z,102998.73
2023-02-11T10:48:29.242Z,102994.74
2023-02-11T10:51:24.196Z,102997.17
2023-02-11T10:54:04.364Z,102995.25
2023-02-11T10:56:34.359Z,102999.83
2023-02-11T10:59:05.838Z,103000.71
2023-02-11T11:01:46.260Z,102998.05
2023-02-11T11:04:29.781Z,102993.14
2023-02-11T11:07:09.985Z,102989.20
2023-02-11T11:09:58.055Z,102992.36
2023-02-11T11:12:26.639Z,102984.16
2023-02-11T11:14:56.763Z,102985.88
2023-02-11T11:17:24.907Z,102987.07
2023-02-11T11:20:15.417Z,102975.56
2023-02-11T11:22:44.228Z,102975.70
2023-02-11T11:25:26.378Z,102973.23
2023-02-11T11:27:59.141Z,102971.27
2023-02-11T11:30:33.187Z,102975.89
2023-02-11T11:33:01.562Z,102964.04
2023-02-11T11:35:31.073Z,102961.29
2023-02-11T11:38:02.019Z,102958.33
2023-02-11T11:40:31.595Z,102961.16
2023-02-11T11:43:15.457Z,102954.11
2023-02-11T11:45:57.608Z,102951.85
2023-02-11T11:48:26.030Z,102947.29
2023-02-11T11:50:56.575Z,102946.65
2023-02-11T11:53:32.198Z,102943.62
2023-02-11T11:56:00.171Z,102944.43
2023-02-11T11:58:29.213Z,102934.74
2023-02-11T12:01:09.425Z,102929.88
2023-02-11T12:03:56.385Z,102920.67
2023-02-11T12:06:31.262Z,102908.70
2023-02-11T12:09:09.414Z,102903.98
2023-02-11T12:12:09.852Z,102897.31
2023-02-11T12:14:43.401Z,102893.72
2023-02-11T12:17:22.393Z,102896.30
2023-02-11T12:19:56.533Z,102894.27
2023-02-11T12:22:36.924Z,102889.88
2023-02-11T12:25:24.139Z,102891.85
2023-02-11T12:28:12.770Z,102886.32
2023-02-11T12:30:46.555Z,102884.36
2023-02-11T12:33:31.860Z,102884.04
2023-02-11T12:36:06.319Z,102890.79
2023-02-11T12:38:52.820Z,102879.36
2023-02-11T12:41:43.862Z,102878.64
2023-02-11T12:44:22.221Z,102878.14
2023-02-11T12:47:13.191Z,102873.48
2023-02-11T12:49:55.094Z,102877.73
2023-02-11T12:52:34.875Z,102870.20
2023-02-11T12:55:08.764Z,102866.35
2023-02-11T12:57:38.837Z,102849.13
2023-02-11T13:00:21.623Z,102841.49
2023-02-11T13:02:54.592Z,102837.54
2023-02-11T13:05:43.244Z,102832.17
2023-02-11T13:08:20.058Z,102831.78
2023-02-11T13:10:51.003Z,102828.70
2023-02-11T13:13:36.230Z,102828.19
2023-02-11T13:16:06.348Z,102820.70
2023-02-11T13:18:49.234Z,102822.77
2023-02-11T13:21:34.237Z,102821.83
2023-02-11T13:24:11.298Z,102819.86
2023-02-11T13:26:43.063Z,102819.56
2023-02-11T13:29:30.037Z,102818.57
2023-02-11T13:32:14.388Z,102814.38
2023-02-11T13:34:45.391Z,102811.91
2023-02-11T13:37:24.201Z,102808.37
2023-02-11T13:39:56.471Z,102812.08
2023-02-11T13:42:25.616Z,102814.10
2023-02-11T13:44:54.499Z,102805.38
2023-02-11T13:47:28.162Z,102811.77
2023-02-11T13:49:57.513Z,102812.73
2023-02-11T13:52:28.337Z,102811.81
2023-02-11T13:54:58.613Z,102810.52
2023-02-11T13:57:30.057Z,102811.88
2023-02-11T14:00:00.234Z,102806.48
2023-02-11T14:02:35.970Z,102810.48
2023-02-11T14:05:04.431Z,102805.01
2023-02-11T14:07:33.321Z,102808.59
2023-02-11T14:10:01.428Z,102805.17
2023-02-11T14:12:34.008Z,102794.64
2023-02-11T14:15:18.060Z,102799.23
2023-02-11T14:17:46.045Z,102809.23
2023-02-11T14:20:35.252Z,102800.09
2023-02-11T14:23:04.437Z,102796.05
2023-02-11T14:25:32.892Z,102796.25
2023-02-11T14:28:00.941Z,102794.46
2023-02-11T14:30:39.174Z,102794.17
2023-02-11T14:33:16.237Z,102793.70
2023-02-11T14:35:44.405Z,102790.13
2023-02-11T14:38:25.191Z,102789.64
2023-02-11T14:40:55.690Z,102791.42
2023-02-11T14:43:30.609Z,102792.77
2023-02-11T14:45:58.955Z,102792.96
2023-02-11T14:48:33.053Z,102796.81
2023-02-11T14:51:06.573Z,102787.73
2023-02-11T14:53:35.854Z,102783.14
2023-02-11T14:56:16.730Z,102787.04
2023-02-11T14:58:48.767Z,102794.77
2023-02-11T15:01:43.215Z,102792.41
2023-02-11T15:04:31.611Z,102784.23
2023-02-11T15:07:07.047Z,102779.80
2023-02-11T15:10:01.442Z,102779.09
2023-02-11T15:12:30.526Z,102772.27
2023-02-11T15:15:00.679Z,102775.12
2023-02-11T15:17:32.110Z,102775.34
2023-02-11T15:20:02.143Z,102772.27
2023-02-11T15:22:33.442Z,102774.76
2023-02-11T15:25:03.701Z,102780.56
2023-02-11T15:27:46.208Z,102779.39
2023-02-11T15:30:28.767Z,102778.92
2023-02-11T15:33:04.627Z,102781.64
2023-02-11T15:35:34.790Z,102776.53
2023-02-11T15:38:03.598Z,102772.41
2023-02-11T15:40:33.485Z,102779.92
2023-02-11T15:43:03.261Z,102775.16
2023-02-11T15:45:34.844Z,102775.21
2023-02-11T15:48:02.806Z,102784.73
2023-02-11T15:50:33.495Z,102772.27
2023-02-11T15:53:05.163Z,102771.99
2023-02-11T15:55:33.328Z,102771.58
2023-02-11T15:58:02.197Z,102771.21
2023-02-11T16:00:36.480Z,102775.25
2023-02-11T16:03:04.838Z,102775.95
2023-02-11T16:05:34.907Z,102775.94
2023-02-11T16:08:26.492Z,102781.29
2023-02-11T16:10:56.830Z,102776.92
2023-02-11T16:13:26.077Z,102780.45
2023-02-11T16:16:01.099Z,102783.33
2023-02-11T16:18:38.140Z,102781.64
2023-02-11T16:21:14.566Z,102781.91
2023-02-11T16:23:43.704Z,102781.56
2023-02-11T16:26:20.053Z,102783.38
2023-02-11T16:28:49.009Z,102780.61
2023-02-11T16:31:17.637Z,102782.20
2023-02-11T16:33:46.264Z,102783.33
2023-02-11T16:36:16.342Z,102781.91
2023-02-11T16:38:44.487Z,102790.74
2023-02-11T16:41:13.625Z,102792.23
2023-02-11T16:43:42.446Z,102794.39
2023-02-11T16:46:14.315Z,102792.96
2023-02-11T16:48:42.428Z,102791.72
2023-02-11T16:51:11.791Z,102797.50
2023-02-11T16:53:40.224Z,102798.86
2023-02-11T16:56:12.227Z,102800.15
2023-02-11T16:58:40.391Z,102804.34
2023-02-11T17:01:08.714Z,102797.13
2023-02-11T17:03:39.055Z,102801.55
2023-02-11T17:06:09.810Z,102809.23
2023-02-11T17:08:38.477Z,102809.48
2023-02-11T17:11:06.604Z,102810.74
2023-02-11T17:13:34.676Z,102813.17
2023-02-11T17:16:03.465Z,102814.30
2023-02-11T17:18:32.247Z,102816.69
2023-02-11T17:21:01.107Z,102811.99
2023-02-11T17:23:29.484Z,102814.88
2023-02-11T17:25:57.478Z,102813.16
2023-02-11T17:28:25.620Z,102807.77
2023-02-11T17:30:54.003Z,102814.48
2023-02-11T17:33:23.139Z,102812.03
2023-02-11T17:35:51.647Z,102816.21
2023-02-11T17:38:20.447Z,102819.04
2023-02-11T17:40:56.860Z,102819.16
2023-02-11T17:43:25.120Z,102815.75
2023-02-11T17:45:53.814Z,102817.88
2023-02-11T17:48:22.848Z,102824.23
2023-02-11T17:50:51.213Z,102819.09
2023-02-11T17:53:19.248Z,102827.02
2023-02-11T17:55:47.443Z,102828.27
2023-02-11T17:58:16.013Z,102827.96
2023-02-11T18:00:44.577Z,102828.45
2023-02-11T18:03:12.767Z,102828.10
2023-02-11T18:05:40.739Z,102832.63
2023-02-11T18:08:08.638Z,102830.96
2023-02-11T18:10:36.896Z,102824.41
2023-02-11T18:13:06.223Z,102827.60
2023-02-11T18:15:34.513Z,102826.05
2023-02-11T18:18:03.035Z,102834.92
2023-02-11T18:20:31.199Z,102829.78
2023-02-11T18:23:00.330Z,102831.00
2023-02-11T18:25:31.935Z,102834.20
2023-02-11T18:27:59.892Z,102838.94
2023-02-11T18:30:28.497Z,102841.89
2023-02-11T18:32:57.587Z,102834.10
2023-02-11T18:35:25.625Z,102840.69
2023-02-11T18:37:53.684Z,102846.34
2023-02-11T18:40:22.437Z,102843.31
2023-02-11T18:42:51.805Z,102846.49
2023-02-11T18:45:19.970Z,102853.19
2023-02-11T18:47:48.675Z,102850.67
2023-02-11T18:50:16.699Z,102842.32
2023-02-11T18:52:44.787Z,102850.23
2023-02-11T18:55:13.345Z,102847.20
2023-02-11T18:57:41.276Z,102852.34
2023-02-11T19:00:10.687Z,102846.64
2023-02-11T19:02:39.261Z,102845.98
2023-02-11T19:05:07.359Z,102853.58
2023-02-11T19:07:35.767Z,102849.63
2023-02-11T19:10:05.185Z,102849.78
2023-02-11T19:12:33.421Z,102847.05
2023-02-11T19:15:01.586Z,102845.27
2023-02-11T19:17:29.542Z,102850.44
2023-02-11T19:19:57.534Z,102848.92
2023-02-11T19:22:25.551Z,102852.73
2023-02-11T19:24:53.560Z,102854.00
2023-02-11T19:27:21.505Z,102851.81
2023-02-11T19:29:49.509Z,102857.09
2023-02-11T19:32:17.818Z,102856.75
2023-02-11T19:34:45.822Z,102852.48
2023-02-11T19:37:13.857Z,102858.63
2023-02-11T19:39:43.314Z,102858.23
2023-02-11T19:42:12.511Z,102864.90
2023-02-11T19:44:41.183Z,102856.02
2023-02-11T19:47:09.556Z,102858.56
2023-02-11T19:49:37.539Z,102862.96
2023-02-11T19:52:05.523Z,102868.95
2023-02-11T19:54:33.944Z,102866.39
2023-02-11T19:57:02.415Z,102861.52
2023-02-11T19:59:30.409Z,102863.06
2023-02-11T20:01:58.460Z,102866.64
2023-02-11T20:04:26.403Z,102862.17
2023-02-11T20:06:54.964Z,102864.76
2023-02-11T20:09:23.313Z,102860.73
2023-02-11T20:11:52.015Z,102866.73
2023-02-11T20:14:20.023Z,102865.54
2023-02-11T20:16:49.926Z,102869.53
2023-02-11T20:19:20.267Z,102870.86
2023-02-11T20:21:49.746Z,102871.81
2023-02-11T20:24:18.247Z,102875.06
2023-02-11T20:26:46.401Z,102875.79
2023-02-11T20:29:18.345Z,102879.91
2023-02-11T20:31:46.652Z,102876.19
2023-02-11T20:34:14.928Z,102878.10
2023-02-11T20:36:44.185Z,102882.82
2023-02-11T20:39:12.070Z,102880.45
2023-02-11T20:41:45.803Z,102877.45
2023-02-11T20:44:14.399Z,102879.77
2023-02-11T20:46:44.382Z,102875.19
2023-02-11T20:49:14.256Z,102877.02
2023-02-11T20:51:42.675Z,102881.88
2023-02-11T20:54:15.961Z,102880.67
2023-02-11T20:56:47.457Z,102878.45
2023-02-11T20:59:15.929Z,102880.05
2023-02-11T21:01:48.905Z,102874.73
2023-02-11T21:04:19.293Z,102884.68
2023-02-11T21:06:51.795Z,102880.78
2023-02-11T21:09:21.525Z,102884.31
2023-02-11T21:11:51.046Z,102884.09
2023-02-11T21:14:19.961Z,102884.88
2023-02-11T21:16:48.469Z,102885.52
2023-02-11T21:19:17.277Z,102880.61
2023-02-11T21:21:45.182Z,102881.19
2023-02-11T21:24:14.834Z,102880.23
2023-02-11T21:26:42.751Z,102878.39
2023-02-11T21:29:10.791Z,102877.73
2023-02-11T21:31:40.713Z,102883.70
2023-02-11T21:34:10.308Z,102884.16
2023-02-11T21:36:39.241Z,102884.47
2023-02-11T21:39:07.862Z,102882.52
2023-02-11T21:41:35.903Z,102879.25
2023-02-11T21:44:04.384Z,102882.73
2023-02-11T21:46:33.056Z,102878.95
2023-02-11T21:49:01.314Z,102882.61
2023-02-11T21:51:30.570Z,102872.31
2023-02-11T21:54:00.714Z,102869.80
2023-02-11T21:56:29.958Z,102871.33
2023-02-11T21:58:58.809Z,102870.05
2023-02-11T22:01:28.389Z,102867.28
2023-02-11T22:03:56.820Z,102866.73
2023-02-11T22:06:26.906Z,102859.67
2023-02-11T22:08:55.510Z,102862.85
2023-02-11T22:11:23.530Z,102862.27
2023-02-11T22:13:55.088Z,102864.59
2023-02-11T22:16:23.737Z,102870.41
2023-02-11T22:18:52.312Z,102870.52
2023-02-11T22:21:21.897Z,102867.11
2023-02-11T22:23:50.502Z,102864.07
2023-02-11T22:26:21.012Z,102861.45
2023-02-11T22:28:53.596Z,102863.35
2023-02-11T22:31:28.248Z,102869.85
2023-02-11T22:33:57.086Z,102866.63
2023-02-11T22:36:26.479Z,102869.48
2023-02-11T22:38:55.318Z,102870.74
2023-02-11T22:41:25.680Z,102868.25
2023-02-11T22:43:53.627Z,102874.73
2023-02-11T22:46:21.713Z,102880.89
2023-02-11T22:48:50.229Z,102879.23
2023-02-11T22:51:23.537Z,102878.92
2023-02-11T22:53:55.722Z,102876.70
2023-02-11T22:56:24.635Z,102876.77
2023-02-11T22:58:53.374Z,102880.56
2023-02-11T23:01:21.417Z,102881.42
2023-02-11T23:03:49.554Z,102880.09
2023-02-11T23:06:17.669Z,102884.45
2023-02-11T23:08:47.339Z,102888.27
2023-02-11T23:11:17.227Z,102892.80
2023-02-11T23:13:46.084Z,102888.98
2023-02-11T23:16:16.570Z,102886.29
2023-02-11T23:18:45.751Z,102884.39
2023-02-11T23:21:15.665Z,102886.23
2023-02-11T23:23:44.950Z,102885.69
2023-02-11T23:26:14.331Z,102885.27
2023-02-11T23:28:43.062Z,102885.78
2023-02-11T23:31:19.923Z,102882.43
2023-02-11T23:33:48.634Z,102886.00
2023-02-11T23:36:18.069Z,102885.00
2023-02-11T23:38:46.256Z,102892.62
2023-02-11T23:41:14.500Z,102889.28
2023-02-11T23:43:43.620Z,102885.35
2023-02-11T23:46:11.822Z,102879.77
2023-02-11T23:48:40.014Z,102880.59
2023-02-11T23:51:08.494Z,102883.86
2023-02-11T23:53:37.128Z,102880.20
2023-02-11T23:56:13.830Z,102876.76
2023-02-11T23:58:42.260Z,102879.13
